sensor_id;sensor_type;location;lat;lon;timestamp;temperature;humidity
19755;DHT22;10036;47.812;9.274;2022-07-23T00:01:37;21.00;99.90
19755;DHT22;10036;47.812;9.274;2022-07-23T00:04:06;21.10;99.90
19755;DHT22;10036;47.812;9.274;2022-07-23T00:06:33;21.10;99.90
19755;DHT22;10036;47.812;9.274;2022-07-23T00:09:00;21.00;99.90
19755;DHT22;10036;47.812;9.274;2022-07-23T00:11:27;20.80;99.90
19755;DHT22;10036;47.812;9.274;2022-07-23T00:13:54;21.00;99.90
19755;DHT22;10036;47.812;9.274;2022-07-23T00:16:24;20.90;99.90
19755;DHT22;10036;47.812;9.274;2022-07-23T00:18:51;20.60;99.90
19755;DHT22;10036;47.812;9.274;2022-07-23T00:21:18;20.50;99.90
19755;DHT22;10036;47.812;9.274;2022-07-23T00:23:45;20.70;99.90
19755;DHT22;10036;47.812;9.274;2022-07-23T00:26:12;20.80;99.90
19755;DHT22;10036;47.812;9.274;2022-07-23T00:28:38;21.00;99.90
19755;DHT22;10036;47.812;9.274;2022-07-23T00:31:05;20.90;99.90
19755;DHT22;10036;47.812;9.274;2022-07-23T00:33:33;20.80;99.90
19755;DHT22;10036;47.812;9.274;2022-07-23T00:36:00;20.80;99.90
19755;DHT22;10036;47.812;9.274;2022-07-23T00:38:27;21.00;99.90
19755;DHT22;10036;47.812;9.274;2022-07-23T00:40:54;21.10;99.90
19755;DHT22;10036;47.812;9.274;2022-07-23T00:43:21;21.20;99.90
19755;DHT22;10036;47.812;9.274;2022-07-23T00:45:50;21.30;99.90
19755;DHT22;10036;47.812;9.274;2022-07-23T00:48:17;21.20;99.90
19755;DHT22;10036;47.812;9.274;2022-07-23T00:50:45;21.20;99.90
19755;DHT22;10036;47.812;9.274;2022-07-23T00:53:12;20.90;99.90
19755;DHT22;10036;47.812;9.274;2022-07-23T00:55:40;20.70;99.90
19755;DHT22;10036;47.812;9.274;2022-07-23T00:58:06;20.70;99.90
19755;DHT22;10036;47.812;9.274;2022-07-23T01:00:35;20.60;99.90
19755;DHT22;10036;47.812;9.274;2022-07-23T01:03:02;20.70;99.90
19755;DHT22;10036;47.812;9.274;2022-07-23T01:05:29;20.80;99.90
19755;DHT22;10036;47.812;9.274;2022-07-23T01:07:57;20.80;99.90
19755;DHT22;10036;47.812;9.274;2022-07-23T01:10:24;20.70;99.90
19755;DHT22;10036;47.812;9.274;2022-07-23T01:12:57;20.70;99.90
19755;DHT22;10036;47.812;9.274;2022-07-23T01:15:24;20.60;99.90
19755;DHT22;10036;47.812;9.274;2022-07-23T01:17:51;20.50;99.90
19755;DHT22;10036;47.812;9.274;2022-07-23T01:20:19;20.20;99.90
19755;DHT22;10036;47.812;9.274;2022-07-23T01:22:47;20.20;99.90
19755;DHT22;10036;47.812;9.274;2022-07-23T01:25:14;20.20;99.90
19755;DHT22;10036;47.812;9.274;2022-07-23T01:27:41;20.30;99.90
19755;DHT22;10036;47.812;9.274;2022-07-23T01:30:09;20.30;99.90
19755;DHT22;10036;47.812;9.274;2022-07-23T01:32:36;20.20;99.90
19755;DHT22;10036;47.812;9.274;2022-07-23T01:35:05;20.10;99.90
19755;DHT22;10036;47.812;9.274;2022-07-23T01:37:32;20.20;99.90
19755;DHT22;10036;47.812;9.274;2022-07-23T01:40:00;20.10;99.90
19755;DHT22;10036;47.812;9.274;2022-07-23T01:42:27;20.20;99.90
19755;DHT22;10036;47.812;9.274;2022-07-23T01:44:54;20.20;99.90
19755;DHT22;10036;47.812;9.274;2022-07-23T01:47:21;20.20;99.90
19755;DHT22;10036;47.812;9.274;2022-07-23T01:49:48;20.20;99.90
19755;DHT22;10036;47.812;9.274;2022-07-23T01:52:15;20.20;99.90
19755;DHT22;10036;47.812;9.274;2022-07-23T01:54:42;20.10;99.90
19755;DHT22;10036;47.812;9.274;2022-07-23T01:57:10;20.20;99.90
19755;DHT22;10036;47.812;9.274;2022-07-23T01:59:37;20.20;99.90
19755;DHT22;10036;47.812;9.274;2022-07-23T02:02:05;20.20;99.90
19755;DHT22;10036;47.812;9.274;2022-07-23T02:04:32;20.00;99.90
19755;DHT22;10036;47.812;9.274;2022-07-23T02:07:01;20.00;99.90
19755;DHT22;10036;47.812;9.274;2022-07-23T02:09:27;20.00;99.90
19755;DHT22;10036;47.812;9.274;2022-07-23T02:11:54;20.00;99.90
19755;DHT22;10036;47.812;9.274;2022-07-23T02:14:23;20.00;99.90
19755;DHT22;10036;47.812;9.274;2022-07-23T02:16:50;20.10;99.90
19755;DHT22;10036;47.812;9.274;2022-07-23T02:19:17;20.10;99.90
19755;DHT22;10036;47.812;9.274;2022-07-23T02:21:44;20.10;99.90
19755;DHT22;10036;47.812;9.274;2022-07-23T02:24:11;20.00;99.90
19755;DHT22;10036;47.812;9.274;2022-07-23T02:26:38;19.80;99.90
19755;DHT22;10036;47.812;9.274;2022-07-23T02:29:05;19.70;99.90
19755;DHT22;10036;47.812;9.274;2022-07-23T02:31:33;19.60;99.90
19755;DHT22;10036;47.812;9.274;2022-07-23T02:34:01;19.60;99.90
19755;DHT22;10036;47.812;9.274;2022-07-23T02:36:29;19.80;99.90
19755;DHT22;10036;47.812;9.274;2022-07-23T02:38:56;19.60;99.90
19755;DHT22;10036;47.812;9.274;2022-07-23T02:41:23;19.60;99.90
19755;DHT22;10036;47.812;9.274;2022-07-23T02:43:50;19.70;99.90
19755;DHT22;10036;47.812;9.274;2022-07-23T02:46:17;19.60;99.90
19755;DHT22;10036;47.812;9.274;2022-07-23T02:48:45;19.50;99.90
19755;DHT22;10036;47.812;9.274;2022-07-23T02:51:12;19.50;99.90
19755;DHT22;10036;47.812;9.274;2022-07-23T02:53:39;19.50;99.90
19755;DHT22;10036;47.812;9.274;2022-07-23T02:56:06;19.50;99.90
19755;DHT22;10036;47.812;9.274;2022-07-23T02:58:36;19.60;99.90
19755;DHT22;10036;47.812;9.274;2022-07-23T03:01:02;19.60;99.90
19755;DHT22;10036;47.812;9.274;2022-07-23T03:03:29;19.50;99.90
19755;DHT22;10036;47.812;9.274;2022-07-23T03:05:58;19.70;99.90
19755;DHT22;10036;47.812;9.274;2022-07-23T03:08:25;19.60;99.90
19755;DHT22;10036;47.812;9.274;2022-07-23T03:10:52;19.40;99.90
19755;DHT22;10036;47.812;9.274;2022-07-23T03:13:19;19.40;99.90
19755;DHT22;10036;47.812;9.274;2022-07-23T03:15:46;19.30;99.90
19755;DHT22;10036;47.812;9.274;2022-07-23T03:18:13;19.30;99.90
19755;DHT22;10036;47.812;9.274;2022-07-23T03:20:40;19.20;99.90
19755;DHT22;10036;47.812;9.274;2022-07-23T03:23:09;19.30;99.90
19755;DHT22;10036;47.812;9.274;2022-07-23T03:25:36;19.40;99.90
19755;DHT22;10036;47.812;9.274;2022-07-23T03:28:03;19.30;99.90
19755;DHT22;10036;47.812;9.274;2022-07-23T03:30:30;19.50;99.90
19755;DHT22;10036;47.812;9.274;2022-07-23T03:32:57;19.60;99.90
19755;DHT22;10036;47.812;9.274;2022-07-23T03:35:24;19.70;99.90
19755;DHT22;10036;47.812;9.274;2022-07-23T03:37:51;19.60;99.90
19755;DHT22;10036;47.812;9.274;2022-07-23T03:40:19;19.40;99.90
19755;DHT22;10036;47.812;9.274;2022-07-23T03:42:46;19.40;99.90
19755;DHT22;10036;47.812;9.274;2022-07-23T03:45:13;19.60;99.90
19755;DHT22;10036;47.812;9.274;2022-07-23T03:47:40;19.60;99.90
19755;DHT22;10036;47.812;9.274;2022-07-23T03:50:07;19.70;99.90
19755;DHT22;10036;47.812;9.274;2022-07-23T03:52:34;19.70;99.90
19755;DHT22;10036;47.812;9.274;2022-07-23T03:55:02;19.60;99.90
19755;DHT22;10036;47.812;9.274;2022-07-23T03:57:30;19.50;99.90
19755;DHT22;10036;47.812;9.274;2022-07-23T03:59:57;19.40;99.90
19755;DHT22;10036;47.812;9.274;2022-07-23T04:02:24;19.60;99.90
19755;DHT22;10036;47.812;9.274;2022-07-23T04:04:51;19.40;99.90
19755;DHT22;10036;47.812;9.274;2022-07-23T04:07:18;19.30;99.90
19755;DHT22;10036;47.812;9.274;2022-07-23T04:09:45;19.10;99.90
19755;DHT22;10036;47.812;9.274;2022-07-23T04:12:12;19.00;99.90
19755;DHT22;10036;47.812;9.274;2022-07-23T04:14:40;19.00;99.90
19755;DHT22;10036;47.812;9.274;2022-07-23T04:17:07;19.00;99.90
19755;DHT22;10036;47.812;9.274;2022-07-23T04:19:34;19.00;99.90
19755;DHT22;10036;47.812;9.274;2022-07-23T04:22:05;19.10;99.90
19755;DHT22;10036;47.812;9.274;2022-07-23T04:24:32;19.20;99.90
19755;DHT22;10036;47.812;9.274;2022-07-23T04:26:58;19.20;99.90
19755;DHT22;10036;47.812;9.274;2022-07-23T04:29:25;19.30;99.90
19755;DHT22;10036;47.812;9.274;2022-07-23T04:31:54;19.40;99.90
19755;DHT22;10036;47.812;9.274;2022-07-23T04:34:21;19.30;99.90
19755;DHT22;10036;47.812;9.274;2022-07-23T04:36:48;19.40;99.90
19755;DHT22;10036;47.812;9.274;2022-07-23T04:39:14;19.50;99.90
19755;DHT22;10036;47.812;9.274;2022-07-23T04:41:41;19.40;99.90
19755;DHT22;10036;47.812;9.274;2022-07-23T04:44:08;19.40;99.90
19755;DHT22;10036;47.812;9.274;2022-07-23T04:46:35;19.30;99.90
19755;DHT22;10036;47.812;9.274;2022-07-23T04:49:03;19.20;99.90
19755;DHT22;10036;47.812;9.274;2022-07-23T04:51:30;19.10;99.90
19755;DHT22;10036;47.812;9.274;2022-07-23T04:53:57;19.00;99.90
19755;DHT22;10036;47.812;9.274;2022-07-23T04:56:24;19.10;99.90
19755;DHT22;10036;47.812;9.274;2022-07-23T04:58:51;19.10;99.90
19755;DHT22;10036;47.812;9.274;2022-07-23T05:01:18;19.10;99.90
19755;DHT22;10036;47.812;9.274;2022-07-23T05:03:44;19.10;99.90
19755;DHT22;10036;47.812;9.274;2022-07-23T05:06:15;19.10;99.90
19755;DHT22;10036;47.812;9.274;2022-07-23T05:08:42;19.00;99.90
19755;DHT22;10036;47.812;9.274;2022-07-23T05:11:09;18.90;99.90
19755;DHT22;10036;47.812;9.274;2022-07-23T05:13:36;18.90;99.90
19755;DHT22;10036;47.812;9.274;2022-07-23T05:16:03;19.00;99.90
19755;DHT22;10036;47.812;9.274;2022-07-23T05:18:30;19.10;99.90
19755;DHT22;10036;47.812;9.274;2022-07-23T05:20:57;19.20;99.90
19755;DHT22;10036;47.812;9.274;2022-07-23T05:23:25;19.10;99.90
19755;DHT22;10036;47.812;9.274;2022-07-23T05:25:52;19.20;99.90
19755;DHT22;10036;47.812;9.274;2022-07-23T05:28:19;19.40;99.90
19755;DHT22;10036;47.812;9.274;2022-07-23T05:30:46;19.40;99.90
19755;DHT22;10036;47.812;9.274;2022-07-23T05:33:13;19.40;99.90
19755;DHT22;10036;47.812;9.274;2022-07-23T05:35:40;19.40;99.90
19755;DHT22;10036;47.812;9.274;2022-07-23T05:38:06;19.50;99.90
19755;DHT22;10036;47.812;9.274;2022-07-23T05:40:35;19.50;99.90
19755;DHT22;10036;47.812;9.274;2022-07-23T05:43:02;19.40;99.90
19755;DHT22;10036;47.812;9.274;2022-07-23T05:45:28;19.40;99.90
19755;DHT22;10036;47.812;9.274;2022-07-23T05:47:55;19.40;99.90
19755;DHT22;10036;47.812;9.274;2022-07-23T05:50:22;19.30;99.90
19755;DHT22;10036;47.812;9.274;2022-07-23T05:52:49;19.30;99.90
19755;DHT22;10036;47.812;9.274;2022-07-23T05:55:16;19.30;99.90
19755;DHT22;10036;47.812;9.274;2022-07-23T05:57:44;19.30;99.90
19755;DHT22;10036;47.812;9.274;2022-07-23T06:00:12;19.30;99.90
19755;DHT22;10036;47.812;9.274;2022-07-23T06:02:39;19.30;99.90
19755;DHT22;10036;47.812;9.274;2022-07-23T06:05:06;19.30;99.90
19755;DHT22;10036;47.812;9.274;2022-07-23T06:07:34;19.30;99.90
19755;DHT22;10036;47.812;9.274;2022-07-23T06:10:02;19.30;99.90
19755;DHT22;10036;47.812;9.274;2022-07-23T06:12:29;19.40;99.90
19755;DHT22;10036;47.812;9.274;2022-07-23T06:14:58;19.40;99.90
19755;DHT22;10036;47.812;9.274;2022-07-23T06:17:25;19.40;99.90
19755;DHT22;10036;47.812;9.274;2022-07-23T06:19:52;19.50;99.90
19755;DHT22;10036;47.812;9.274;2022-07-23T06:22:19;19.60;99.90
19755;DHT22;10036;47.812;9.274;2022-07-23T06:24:46;19.70;99.90
19755;DHT22;10036;47.812;9.274;2022-07-23T06:27:13;19.90;99.90
19755;DHT22;10036;47.812;9.274;2022-07-23T06:29:40;20.10;99.90
19755;DHT22;10036;47.812;9.274;2022-07-23T06:32:09;20.20;99.90
19755;DHT22;10036;47.812;9.274;2022-07-23T06:34:35;20.20;99.90
19755;DHT22;10036;47.812;9.274;2022-07-23T06:37:02;20.30;99.90
19755;DHT22;10036;47.812;9.274;2022-07-23T06:39:29;20.30;99.90
19755;DHT22;10036;47.812;9.274;2022-07-23T06:41:56;20.40;99.90
19755;DHT22;10036;47.812;9.274;2022-07-23T06:44:23;20.50;99.90
19755;DHT22;10036;47.812;9.274;2022-07-23T06:46:50;20.60;99.90
19755;DHT22;10036;47.812;9.274;2022-07-23T06:49:18;20.50;99.90
19755;DHT22;10036;47.812;9.274;2022-07-23T06:51:45;20.50;99.90
19755;DHT22;10036;47.812;9.274;2022-07-23T06:54:12;20.40;99.90
19755;DHT22;10036;47.812;9.274;2022-07-23T06:56:39;20.40;99.90
19755;DHT22;10036;47.812;9.274;2022-07-23T06:59:06;20.40;99.90
19755;DHT22;10036;47.812;9.274;2022-07-23T07:01:33;20.50;99.90
19755;DHT22;10036;47.812;9.274;2022-07-23T07:03:59;20.50;99.90
19755;DHT22;10036;47.812;9.274;2022-07-23T07:06:28;20.50;99.90
19755;DHT22;10036;47.812;9.274;2022-07-23T07:08:55;20.50;99.90
19755;DHT22;10036;47.812;9.274;2022-07-23T07:11:22;20.60;99.90
19755;DHT22;10036;47.812;9.274;2022-07-23T07:13:50;20.80;99.90
19755;DHT22;10036;47.812;9.274;2022-07-23T07:16:17;20.80;99.90
19755;DHT22;10036;47.812;9.274;2022-07-23T07:18:44;21.00;99.90
19755;DHT22;10036;47.812;9.274;2022-07-23T07:21:11;21.00;99.90
19755;DHT22;10036;47.812;9.274;2022-07-23T07:23:39;21.10;99.90
19755;DHT22;10036;47.812;9.274;2022-07-23T07:26:06;21.30;99.90
19755;DHT22;10036;47.812;9.274;2022-07-23T07:28:33;21.40;99.90
19755;DHT22;10036;47.812;9.274;2022-07-23T07:31:00;21.50;99.90
19755;DHT22;10036;47.812;9.274;2022-07-23T07:33:27;21.60;99.90
19755;DHT22;10036;47.812;9.274;2022-07-23T07:35:54;21.70;99.90
19755;DHT22;10036;47.812;9.274;2022-07-23T07:38:21;21.70;99.90
19755;DHT22;10036;47.812;9.274;2022-07-23T07:40:50;21.70;99.90
19755;DHT22;10036;47.812;9.274;2022-07-23T07:43:17;21.70;99.90
19755;DHT22;10036;47.812;9.274;2022-07-23T07:45:44;21.70;99.90
19755;DHT22;10036;47.812;9.274;2022-07-23T07:48:10;21.80;99.90
19755;DHT22;10036;47.812;9.274;2022-07-23T07:50:37;22.00;99.90
19755;DHT22;10036;47.812;9.274;2022-07-23T07:53:05;22.20;99.90
19755;DHT22;10036;47.812;9.274;2022-07-23T07:55:32;22.20;99.90
19755;DHT22;10036;47.812;9.274;2022-07-23T07:58:01;22.10;99.90
19755;DHT22;10036;47.812;9.274;2022-07-23T08:00:28;22.10;99.90
19755;DHT22;10036;47.812;9.274;2022-07-23T08:02:55;21.90;99.90
19755;DHT22;10036;47.812;9.274;2022-07-23T08:05:23;21.80;99.90
19755;DHT22;10036;47.812;9.274;2022-07-23T08:07:50;21.70;99.90
19755;DHT22;10036;47.812;9.274;2022-07-23T08:10:18;21.60;99.90
19755;DHT22;10036;47.812;9.274;2022-07-23T08:12:47;21.50;99.90
19755;DHT22;10036;47.812;9.274;2022-07-23T08:15:17;21.50;99.90
19755;DHT22;10036;47.812;9.274;2022-07-23T08:17:45;21.40;99.90
19755;DHT22;10036;47.812;9.274;2022-07-23T08:20:14;21.40;99.90
19755;DHT22;10036;47.812;9.274;2022-07-23T08:22:43;21.40;99.90
19755;DHT22;10036;47.812;9.274;2022-07-23T08:25:10;21.30;99.90
19755;DHT22;10036;47.812;9.274;2022-07-23T08:27:37;21.40;99.90
19755;DHT22;10036;47.812;9.274;2022-07-23T08:30:05;21.40;99.90
19755;DHT22;10036;47.812;9.274;2022-07-23T08:32:33;21.40;99.90
19755;DHT22;10036;47.812;9.274;2022-07-23T08:35:00;21.50;99.90
19755;DHT22;10036;47.812;9.274;2022-07-23T08:37:27;21.60;99.90
19755;DHT22;10036;47.812;9.274;2022-07-23T08:39:54;21.60;99.90
19755;DHT22;10036;47.812;9.274;2022-07-23T08:42:21;21.70;99.90
19755;DHT22;10036;47.812;9.274;2022-07-23T08:44:49;21.80;99.90
19755;DHT22;10036;47.812;9.274;2022-07-23T08:47:16;22.00;99.90
19755;DHT22;10036;47.812;9.274;2022-07-23T08:49:46;22.10;99.90
19755;DHT22;10036;47.812;9.274;2022-07-23T08:52:13;22.30;99.90
19755;DHT22;10036;47.812;9.274;2022-07-23T08:54:41;22.40;99.90
19755;DHT22;10036;47.812;9.274;2022-07-23T08:57:08;22.60;99.90
19755;DHT22;10036;47.812;9.274;2022-07-23T08:59:35;22.70;99.90
19755;DHT22;10036;47.812;9.274;2022-07-23T09:02:02;22.80;99.90
19755;DHT22;10036;47.812;9.274;2022-07-23T09:04:28;22.80;99.90
19755;DHT22;10036;47.812;9.274;2022-07-23T09:06:59;23.00;99.90
19755;DHT22;10036;47.812;9.274;2022-07-23T09:09:28;22.60;99.90
19755;DHT22;10036;47.812;9.274;2022-07-23T09:12:03;22.50;99.90
19755;DHT22;10036;47.812;9.274;2022-07-23T09:14:38;22.50;99.90
19755;DHT22;10036;47.812;9.274;2022-07-23T09:17:12;22.60;99.90
19755;DHT22;10036;47.812;9.274;2022-07-23T09:19:40;22.40;99.90
19755;DHT22;10036;47.812;9.274;2022-07-23T09:22:19;22.40;99.90
19755;DHT22;10036;47.812;9.274;2022-07-23T09:25:07;22.50;99.90
19755;DHT22;10036;47.812;9.274;2022-07-23T09:27:52;22.60;99.90
19755;DHT22;10036;47.812;9.274;2022-07-23T09:30:20;22.80;99.90
19755;DHT22;10036;47.812;9.274;2022-07-23T09:33:11;22.80;99.90
19755;DHT22;10036;47.812;9.274;2022-07-23T09:35:46;22.80;99.90
19755;DHT22;10036;47.812;9.274;2022-07-23T09:38:15;22.80;99.90
19755;DHT22;10036;47.812;9.274;2022-07-23T09:40:43;22.80;99.90
19755;DHT22;10036;47.812;9.274;2022-07-23T09:43:11;22.80;99.90
19755;DHT22;10036;47.812;9.274;2022-07-23T09:45:38;22.70;99.90
19755;DHT22;10036;47.812;9.274;2022-07-23T09:48:12;22.70;99.90
19755;DHT22;10036;47.812;9.274;2022-07-23T09:50:40;22.60;99.90
19755;DHT22;10036;47.812;9.274;2022-07-23T09:53:07;22.60;99.90
19755;DHT22;10036;47.812;9.274;2022-07-23T09:55:37;22.60;99.90
19755;DHT22;10036;47.812;9.274;2022-07-23T09:58:05;22.70;99.90
19755;DHT22;10036;47.812;9.274;2022-07-23T10:00:34;22.70;99.90
19755;DHT22;10036;47.812;9.274;2022-07-23T10:03:01;22.80;99.90
19755;DHT22;10036;47.812;9.274;2022-07-23T10:05:30;22.70;99.90
19755;DHT22;10036;47.812;9.274;2022-07-23T10:07:58;22.60;99.90
19755;DHT22;10036;47.812;9.274;2022-07-23T10:10:26;22.60;99.90
19755;DHT22;10036;47.812;9.274;2022-07-23T10:12:56;22.60;99.90
19755;DHT22;10036;47.812;9.274;2022-07-23T10:15:41;22.50;99.90
19755;DHT22;10036;47.812;9.274;2022-07-23T10:18:10;22.60;99.90
19755;DHT22;10036;47.812;9.274;2022-07-23T10:20:37;22.60;99.90
19755;DHT22;10036;47.812;9.274;2022-07-23T10:23:11;22.70;99.90
19755;DHT22;10036;47.812;9.274;2022-07-23T10:25:48;22.70;99.90
19755;DHT22;10036;47.812;9.274;2022-07-23T10:28:38;22.80;99.90
19755;DHT22;10036;47.812;9.274;2022-07-23T10:31:14;22.90;99.90
19755;DHT22;10036;47.812;9.274;2022-07-23T10:33:50;23.00;99.90
19755;DHT22;10036;47.812;9.274;2022-07-23T10:36:23;23.20;99.90
19755;DHT22;10036;47.812;9.274;2022-07-23T10:38:53;23.20;99.90
19755;DHT22;10036;47.812;9.274;2022-07-23T10:41:32;23.30;99.90
19755;DHT22;10036;47.812;9.274;2022-07-23T10:44:08;23.60;99.90
19755;DHT22;10036;47.812;9.274;2022-07-23T10:46:35;23.80;99.90
19755;DHT22;10036;47.812;9.274;2022-07-23T10:49:22;24.00;99.90
19755;DHT22;10036;47.812;9.274;2022-07-23T10:52:24;24.00;99.90
19755;DHT22;10036;47.812;9.274;2022-07-23T10:54:53;24.10;99.90
19755;DHT22;10036;47.812;9.274;2022-07-23T10:57:22;24.10;99.90
19755;DHT22;10036;47.812;9.274;2022-07-23T11:00:21;23.90;99.90
19755;DHT22;10036;47.812;9.274;2022-07-23T11:02:50;23.70;99.90
19755;DHT22;10036;47.812;9.274;2022-07-23T11:05:19;23.50;99.90
19755;DHT22;10036;47.812;9.274;2022-07-23T11:08:14;23.40;99.90
19755;DHT22;10036;47.812;9.274;2022-07-23T11:10:44;23.40;99.90
19755;DHT22;10036;47.812;9.274;2022-07-23T11:13:37;23.40;99.90
19755;DHT22;10036;47.812;9.274;2022-07-23T11:16:16;23.50;99.90
19755;DHT22;10036;47.812;9.274;2022-07-23T11:19:06;23.50;99.90
19755;DHT22;10036;47.812;9.274;2022-07-23T11:21:50;23.50;99.90
19755;DHT22;10036;47.812;9.274;2022-07-23T11:24:22;23.70;99.90
19755;DHT22;10036;47.812;9.274;2022-07-23T11:26:57;23.80;99.90
19755;DHT22;10036;47.812;9.274;2022-07-23T11:29:44;23.90;99.90
19755;DHT22;10036;47.812;9.274;2022-07-23T11:32:34;23.90;99.90
19755;DHT22;10036;47.812;9.274;2022-07-23T11:35:19;23.80;99.90
19755;DHT22;10036;47.812;9.274;2022-07-23T11:37:47;23.80;99.90
19755;DHT22;10036;47.812;9.274;2022-07-23T11:40:16;23.90;99.90
19755;DHT22;10036;47.812;9.274;2022-07-23T11:42:54;23.80;99.90
19755;DHT22;10036;47.812;9.274;2022-07-23T11:45:22;23.80;99.90
19755;DHT22;10036;47.812;9.274;2022-07-23T11:47:50;23.80;99.90
19755;DHT22;10036;47.812;9.274;2022-07-23T11:50:17;23.90;99.90
19755;DHT22;10036;47.812;9.274;2022-07-23T11:52:44;24.00;99.90
19755;DHT22;10036;47.812;9.274;2022-07-23T11:55:12;23.90;99.90
19755;DHT22;10036;47.812;9.274;2022-07-23T11:57:42;24.10;99.90
19755;DHT22;10036;47.812;9.274;2022-07-23T12:00:11;24.20;99.90
19755;DHT22;10036;47.812;9.274;2022-07-23T12:02:40;24.30;99.90
19755;DHT22;10036;47.812;9.274;2022-07-23T12:05:11;24.30;99.90
19755;DHT22;10036;47.812;9.274;2022-07-23T12:07:40;24.40;99.90
19755;DHT22;10036;47.812;9.274;2022-07-23T12:10:13;24.30;99.90
19755;DHT22;10036;47.812;9.274;2022-07-23T12:12:42;24.40;99.90
19755;DHT22;10036;47.812;9.274;2022-07-23T12:15:10;24.30;99.90
19755;DHT22;10036;47.812;9.274;2022-07-23T12:17:39;24.20;99.90
19755;DHT22;10036;47.812;9.274;2022-07-23T12:20:12;24.20;99.90
19755;DHT22;10036;47.812;9.274;2022-07-23T12:22:41;24.20;99.90
19755;DHT22;10036;47.812;9.274;2022-07-23T12:25:11;24.50;99.90
19755;DHT22;10036;47.812;9.274;2022-07-23T12:27:39;24.70;99.90
19755;DHT22;10036;47.812;9.274;2022-07-23T12:30:16;24.70;99.90
19755;DHT22;10036;47.812;9.274;2022-07-23T12:32:44;24.80;99.90
19755;DHT22;10036;47.812;9.274;2022-07-23T12:35:13;24.80;99.90
19755;DHT22;10036;47.812;9.274;2022-07-23T12:37:41;24.80;99.90
19755;DHT22;10036;47.812;9.274;2022-07-23T12:40:26;25.00;99.90
19755;DHT22;10036;47.812;9.274;2022-07-23T12:42:55;25.00;99.90
19755;DHT22;10036;47.812;9.274;2022-07-23T12:45:22;25.20;99.90
19755;DHT22;10036;47.812;9.274;2022-07-23T12:48:08;25.20;99.90
19755;DHT22;10036;47.812;9.274;2022-07-23T12:50:47;25.20;99.90
19755;DHT22;10036;47.812;9.274;2022-07-23T12:53:16;25.10;99.90
19755;DHT22;10036;47.812;9.274;2022-07-23T12:55:44;25.10;99.90
19755;DHT22;10036;47.812;9.274;2022-07-23T12:58:14;25.00;99.90
19755;DHT22;10036;47.812;9.274;2022-07-23T13:00:52;25.20;99.90
19755;DHT22;10036;47.812;9.274;2022-07-23T13:03:24;25.40;99.90
19755;DHT22;10036;47.812;9.274;2022-07-23T13:05:52;25.60;99.90
19755;DHT22;10036;47.812;9.274;2022-07-23T13:08:20;25.70;99.90
19755;DHT22;10036;47.812;9.274;2022-07-23T13:10:47;25.90;99.90
19755;DHT22;10036;47.812;9.274;2022-07-23T13:13:17;26.10;99.90
19755;DHT22;10036;47.812;9.274;2022-07-23T13:15:44;26.10;99.90
19755;DHT22;10036;47.812;9.274;2022-07-23T13:18:11;25.80;99.90
19755;DHT22;10036;47.812;9.274;2022-07-23T13:20:38;25.50;99.90
19755;DHT22;10036;47.812;9.274;2022-07-23T13:23:07;25.40;99.90
19755;DHT22;10036;47.812;9.274;2022-07-23T13:25:34;25.60;99.90
19755;DHT22;10036;47.812;9.274;2022-07-23T13:28:01;25.70;99.90
19755;DHT22;10036;47.812;9.274;2022-07-23T13:30:29;25.90;99.90
19755;DHT22;10036;47.812;9.274;2022-07-23T13:32:55;25.90;99.90
19755;DHT22;10036;47.812;9.274;2022-07-23T13:35:23;26.00;99.90
19755;DHT22;10036;47.812;9.274;2022-07-23T13:37:50;26.00;99.90
19755;DHT22;10036;47.812;9.274;2022-07-23T13:40:18;25.90;99.90
19755;DHT22;10036;47.812;9.274;2022-07-23T13:42:45;26.10;99.90
19755;DHT22;10036;47.812;9.274;2022-07-23T13:45:12;25.90;99.90
19755;DHT22;10036;47.812;9.274;2022-07-23T13:47:39;25.90;99.90
19755;DHT22;10036;47.812;9.274;2022-07-23T13:50:06;26.20;99.90
19755;DHT22;10036;47.812;9.274;2022-07-23T13:52:34;26.50;99.90
19755;DHT22;10036;47.812;9.274;2022-07-23T13:55:01;26.80;99.90
19755;DHT22;10036;47.812;9.274;2022-07-23T13:57:31;27.00;99.90
19755;DHT22;10036;47.812;9.274;2022-07-23T13:59:58;27.30;99.90
19755;DHT22;10036;47.812;9.274;2022-07-23T14:02:25;27.30;99.90
19755;DHT22;10036;47.812;9.274;2022-07-23T14:04:52;27.50;99.90
19755;DHT22;10036;47.812;9.274;2022-07-23T14:07:19;27.70;99.90
19755;DHT22;10036;47.812;9.274;2022-07-23T14:09:46;27.70;99.90
19755;DHT22;10036;47.812;9.274;2022-07-23T14:12:13;27.90;99.90
19755;DHT22;10036;47.812;9.274;2022-07-23T14:14:41;27.90;99.90
19755;DHT22;10036;47.812;9.274;2022-07-23T14:17:09;28.10;99.90
19755;DHT22;10036;47.812;9.274;2022-07-23T14:19:36;28.00;99.90
19755;DHT22;10036;47.812;9.274;2022-07-23T14:22:03;28.20;99.90
19755;DHT22;10036;47.812;9.274;2022-07-23T14:24:29;28.20;99.90
19755;DHT22;10036;47.812;9.274;2022-07-23T14:26:56;28.30;99.90
19755;DHT22;10036;47.812;9.274;2022-07-23T14:29:23;28.20;99.90
19755;DHT22;10036;47.812;9.274;2022-07-23T14:31:51;28.50;99.90
19755;DHT22;10036;47.812;9.274;2022-07-23T14:34:18;28.70;99.90
19755;DHT22;10036;47.812;9.274;2022-07-23T14:36:46;28.90;99.90
19755;DHT22;10036;47.812;9.274;2022-07-23T14:39:13;29.00;99.90
19755;DHT22;10036;47.812;9.274;2022-07-23T14:41:40;29.10;99.90
19755;DHT22;10036;47.812;9.274;2022-07-23T14:44:07;29.10;99.90
19755;DHT22;10036;47.812;9.274;2022-07-23T14:46:34;29.10;99.90
19755;DHT22;10036;47.812;9.274;2022-07-23T14:49:03;29.20;99.90
19755;DHT22;10036;47.812;9.274;2022-07-23T14:51:30;29.60;99.90
19755;DHT22;10036;47.812;9.274;2022-07-23T14:53:57;29.60;99.90
19755;DHT22;10036;47.812;9.274;2022-07-23T14:56:24;30.00;99.90
19755;DHT22;10036;47.812;9.274;2022-07-23T14:58:51;29.90;99.90
19755;DHT22;10036;47.812;9.274;2022-07-23T15:01:17;29.80;99.90
19755;DHT22;10036;47.812;9.274;2022-07-23T15:03:44;29.70;99.90
19755;DHT22;10036;47.812;9.274;2022-07-23T15:06:13;29.60;99.90
19755;DHT22;10036;47.812;9.274;2022-07-23T15:08:39;29.70;99.90
19755;DHT22;10036;47.812;9.274;2022-07-23T15:11:06;29.80;99.90
19755;DHT22;10036;47.812;9.274;2022-07-23T15:13:34;30.20;99.90
19755;DHT22;10036;47.812;9.274;2022-07-23T15:16:02;30.00;99.90
19755;DHT22;10036;47.812;9.274;2022-07-23T15:18:29;29.50;99.90
19755;DHT22;10036;47.812;9.274;2022-07-23T15:20:57;29.20;99.90
19755;DHT22;10036;47.812;9.274;2022-07-23T15:23:25;29.00;99.90
19755;DHT22;10036;47.812;9.274;2022-07-23T15:25:53;28.70;99.90
19755;DHT22;10036;47.812;9.274;2022-07-23T15:28:21;28.70;99.90
19755;DHT22;10036;47.812;9.274;2022-07-23T15:30:48;28.90;99.90
19755;DHT22;10036;47.812;9.274;2022-07-23T15:33:15;28.70;99.90
19755;DHT22;10036;47.812;9.274;2022-07-23T15:35:42;28.80;99.90
19755;DHT22;10036;47.812;9.274;2022-07-23T15:38:09;28.80;99.90
19755;DHT22;10036;47.812;9.274;2022-07-23T15:40:37;28.80;99.90